Main page
METAR-TAF:

METAR-TAF

Airports :

Vienna, Austria

Vienna International Airport

latitude: 48-07N, longitude: 016-34E, elevation: 183 m

Current weather observation

The report was made 37 minutes ago, at 11:20 UTC
Wind 12 kt from the West/Northwest, varying between West and North/Northwest
Temperature 22°C
Humidity 41%
Pressure 1021 hPa
Visibility 10 km or more
no clouds below 1500 m and no cumulonimbus

METAR: LOWW 211120Z 30012KT 270V340 CAVOK 22/08 Q1021 NOSIG

Time: 13:57 (11:57 UTC)

Forecast

The report was made 42 minutes ago, at 11:15 UTC
Forecast valid from 21 at 12 UTC to 22 at 18 UTC
Wind 12 kt from the North/Northwest
Visibility 10 km or more
Few clouds at a height of 5000 ft
Scattered clouds at a height of 7000 ft
Becoming
from 21 at 16 UTC to 21 at 18 UTC
Wind 6 kt from the West/Northwest
Visibility 10 km or more
no clouds below 1500 m and no cumulonimbus

TAF: LOWW 211115Z 2112/2218 34012KT 9999 FEW050 SCT070 TX23/2214Z TN12/2204Z BECMG 2116/2118 30006KT CAVOK

Weather observations and forecasts of more than 4000 airports (METAR and TAF reports).

The available stations are represented by yellow and red dots on the map.

Hover mouse over dot to see the name of the station.

Then click to see weather observations and forecasts.

To change the map : click on the green buttons with a black cross to zoom in, on the green button with a dash to zoom out, or on the green arrows for adjacent maps.


METAR-TAF: